sensor_id;sensor_type;location;lat;lon;timestamp;P1;durP1;ratioP1;P2;durP2;ratioP2
61702;SDS011;47622;47.726;3.298;2023-12-20T00:01:34;4.95;;;3.28;;
61702;SDS011;47622;47.726;3.298;2023-12-20T00:04:03;4.60;;;3.75;;
61702;SDS011;47622;47.726;3.298;2023-12-20T00:06:29;6.68;;;4.05;;
61702;SDS011;47622;47.726;3.298;2023-12-20T00:08:55;5.13;;;3.92;;
61702;SDS011;47622;47.726;3.298;2023-12-20T00:11:23;5.40;;;4.25;;
61702;SDS011;47622;47.726;3.298;2023-12-20T00:13:49;5.20;;;4.45;;
61702;SDS011;47622;47.726;3.298;2023-12-20T00:16:14;6.65;;;4.32;;
61702;SDS011;47622;47.726;3.298;2023-12-20T00:18:40;5.20;;;3.97;;
61702;SDS011;47622;47.726;3.298;2023-12-20T00:21:05;4.43;;;3.97;;
61702;SDS011;47622;47.726;3.298;2023-12-20T00:23:31;5.32;;;3.90;;
61702;SDS011;47622;47.726;3.298;2023-12-20T00:25:57;4.63;;;3.97;;
61702;SDS011;47622;47.726;3.298;2023-12-20T00:28:23;6.90;;;4.32;;
61702;SDS011;47622;47.726;3.298;2023-12-20T00:30:48;5.78;;;4.25;;
61702;SDS011;47622;47.726;3.298;2023-12-20T00:33:14;7.53;;;4.88;;
61702;SDS011;47622;47.726;3.298;2023-12-20T00:35:39;4.75;;;4.10;;
61702;SDS011;47622;47.726;3.298;2023-12-20T00:38:05;5.85;;;4.75;;
61702;SDS011;47622;47.726;3.298;2023-12-20T00:40:32;5.65;;;4.45;;
61702;SDS011;47622;47.726;3.298;2023-12-20T00:42:58;8.00;;;5.18;;
61702;SDS011;47622;47.726;3.298;2023-12-20T00:45:24;5.75;;;4.13;;
61702;SDS011;47622;47.726;3.298;2023-12-20T00:47:49;6.35;;;4.75;;
61702;SDS011;47622;47.726;3.298;2023-12-20T00:50:15;6.63;;;5.28;;
61702;SDS011;47622;47.726;3.298;2023-12-20T00:52:41;6.88;;;5.30;;
61702;SDS011;47622;47.726;3.298;2023-12-20T00:55:06;6.32;;;5.22;;
61702;SDS011;47622;47.726;3.298;2023-12-20T00:57:32;7.50;;;5.63;;
61702;SDS011;47622;47.726;3.298;2023-12-20T00:59:58;8.55;;;5.13;;
61702;SDS011;47622;47.726;3.298;2023-12-20T01:02:24;6.82;;;4.70;;
61702;SDS011;47622;47.726;3.298;2023-12-20T01:04:49;7.22;;;5.18;;
61702;SDS011;47622;47.726;3.298;2023-12-20T01:07:15;7.05;;;5.00;;
61702;SDS011;47622;47.726;3.298;2023-12-20T01:09:40;7.47;;;5.70;;
61702;SDS011;47622;47.726;3.298;2023-12-20T01:12:06;7.22;;;5.47;;
61702;SDS011;47622;47.726;3.298;2023-12-20T01:14:31;7.82;;;5.35;;
61702;SDS011;47622;47.726;3.298;2023-12-20T01:16:57;8.13;;;5.72;;
61702;SDS011;47622;47.726;3.298;2023-12-20T01:19:22;8.65;;;6.25;;
61702;SDS011;47622;47.726;3.298;2023-12-20T01:21:49;7.15;;;5.20;;
61702;SDS011;47622;47.726;3.298;2023-12-20T01:24:15;9.60;;;6.15;;
61702;SDS011;47622;47.726;3.298;2023-12-20T01:26:40;8.85;;;5.88;;
61702;SDS011;47622;47.726;3.298;2023-12-20T01:29:06;9.95;;;6.20;;
61702;SDS011;47622;47.726;3.298;2023-12-20T01:31:32;8.45;;;6.45;;
61702;SDS011;47622;47.726;3.298;2023-12-20T01:33:57;9.43;;;6.15;;
61702;SDS011;47622;47.726;3.298;2023-12-20T01:36:23;11.98;;;6.90;;
61702;SDS011;47622;47.726;3.298;2023-12-20T01:38:48;8.73;;;6.15;;
61702;SDS011;47622;47.726;3.298;2023-12-20T01:41:14;11.15;;;7.25;;
61702;SDS011;47622;47.726;3.298;2023-12-20T01:43:40;12.38;;;7.85;;
61702;SDS011;47622;47.726;3.298;2023-12-20T01:46:05;11.48;;;7.40;;
61702;SDS011;47622;47.726;3.298;2023-12-20T01:48:31;11.32;;;7.55;;
61702;SDS011;47622;47.726;3.298;2023-12-20T01:50:57;11.15;;;7.68;;
61702;SDS011;47622;47.726;3.298;2023-12-20T01:53:25;14.43;;;8.23;;
61702;SDS011;47622;47.726;3.298;2023-12-20T01:55:52;12.93;;;8.23;;
61702;SDS011;47622;47.726;3.298;2023-12-20T01:58:19;12.90;;;7.80;;
61702;SDS011;47622;47.726;3.298;2023-12-20T02:00:46;11.27;;;7.68;;
61702;SDS011;47622;47.726;3.298;2023-12-20T02:03:12;11.02;;;7.43;;
61702;SDS011;47622;47.726;3.298;2023-12-20T02:05:38;13.05;;;8.07;;
61702;SDS011;47622;47.726;3.298;2023-12-20T02:08:04;9.50;;;7.05;;
61702;SDS011;47622;47.726;3.298;2023-12-20T02:10:30;10.32;;;7.07;;
61702;SDS011;47622;47.726;3.298;2023-12-20T02:12:56;12.63;;;7.00;;
61702;SDS011;47622;47.726;3.298;2023-12-20T02:15:22;9.90;;;6.45;;
61702;SDS011;47622;47.726;3.298;2023-12-20T02:17:48;12.32;;;7.25;;
61702;SDS011;47622;47.726;3.298;2023-12-20T02:20:14;8.55;;;5.95;;
61702;SDS011;47622;47.726;3.298;2023-12-20T02:22:40;9.13;;;6.45;;
61702;SDS011;47622;47.726;3.298;2023-12-20T02:25:05;10.07;;;6.40;;
61702;SDS011;47622;47.726;3.298;2023-12-20T02:27:31;13.07;;;7.47;;
61702;SDS011;47622;47.726;3.298;2023-12-20T02:29:57;10.48;;;6.65;;
61702;SDS011;47622;47.726;3.298;2023-12-20T02:32:22;12.45;;;6.97;;
61702;SDS011;47622;47.726;3.298;2023-12-20T02:34:51;11.55;;;7.07;;
61702;SDS011;47622;47.726;3.298;2023-12-20T02:37:17;11.65;;;7.10;;
61702;SDS011;47622;47.726;3.298;2023-12-20T02:39:42;9.98;;;7.30;;
61702;SDS011;47622;47.726;3.298;2023-12-20T02:42:08;9.57;;;6.78;;
61702;SDS011;47622;47.726;3.298;2023-12-20T02:44:34;9.77;;;6.80;;
61702;SDS011;47622;47.726;3.298;2023-12-20T02:46:59;9.50;;;6.75;;
61702;SDS011;47622;47.726;3.298;2023-12-20T02:49:25;9.95;;;6.55;;
61702;SDS011;47622;47.726;3.298;2023-12-20T02:51:50;14.25;;;7.43;;
61702;SDS011;47622;47.726;3.298;2023-12-20T02:54:16;11.13;;;6.80;;
61702;SDS011;47622;47.726;3.298;2023-12-20T02:56:41;9.55;;;6.90;;
61702;SDS011;47622;47.726;3.298;2023-12-20T02:59:07;10.63;;;7.22;;
61702;SDS011;47622;47.726;3.298;2023-12-20T03:01:34;12.13;;;7.57;;
61702;SDS011;47622;47.726;3.298;2023-12-20T03:04:00;12.77;;;7.35;;
61702;SDS011;47622;47.726;3.298;2023-12-20T03:06:26;11.07;;;8.20;;
61702;SDS011;47622;47.726;3.298;2023-12-20T03:08:52;11.75;;;7.28;;
61702;SDS011;47622;47.726;3.298;2023-12-20T03:11:17;17.08;;;8.20;;
61702;SDS011;47622;47.726;3.298;2023-12-20T03:13:43;11.77;;;6.68;;
61702;SDS011;47622;47.726;3.298;2023-12-20T03:16:09;13.40;;;7.20;;
61702;SDS011;47622;47.726;3.298;2023-12-20T03:18:36;11.75;;;7.18;;
61702;SDS011;47622;47.726;3.298;2023-12-20T03:21:01;11.55;;;7.85;;
61702;SDS011;47622;47.726;3.298;2023-12-20T03:23:27;11.23;;;7.03;;
61702;SDS011;47622;47.726;3.298;2023-12-20T03:25:55;12.45;;;6.93;;
61702;SDS011;47622;47.726;3.298;2023-12-20T03:28:21;9.77;;;6.78;;
61702;SDS011;47622;47.726;3.298;2023-12-20T03:30:48;11.32;;;6.68;;
61702;SDS011;47622;47.726;3.298;2023-12-20T03:33:14;10.88;;;6.28;;
61702;SDS011;47622;47.726;3.298;2023-12-20T03:35:39;9.63;;;6.32;;
61702;SDS011;47622;47.726;3.298;2023-12-20T03:38:05;9.60;;;6.10;;
61702;SDS011;47622;47.726;3.298;2023-12-20T03:40:30;8.27;;;5.70;;
61702;SDS011;47622;47.726;3.298;2023-12-20T03:42:56;9.93;;;6.57;;
61702;SDS011;47622;47.726;3.298;2023-12-20T03:45:21;11.63;;;6.45;;
61702;SDS011;47622;47.726;3.298;2023-12-20T03:47:47;9.32;;;5.30;;
61702;SDS011;47622;47.726;3.298;2023-12-20T03:50:12;8.57;;;4.63;;
61702;SDS011;47622;47.726;3.298;2023-12-20T03:52:38;8.35;;;4.53;;
61702;SDS011;47622;47.726;3.298;2023-12-20T03:55:04;9.60;;;4.18;;
61702;SDS011;47622;47.726;3.298;2023-12-20T03:57:29;7.53;;;4.50;;
61702;SDS011;47622;47.726;3.298;2023-12-20T03:59:55;8.95;;;3.85;;
61702;SDS011;47622;47.726;3.298;2023-12-20T04:02:20;10.23;;;4.10;;
61702;SDS011;47622;47.726;3.298;2023-12-20T04:04:46;8.15;;;3.97;;
61702;SDS011;47622;47.726;3.298;2023-12-20T04:07:11;9.32;;;4.05;;
61702;SDS011;47622;47.726;3.298;2023-12-20T04:09:37;8.25;;;3.75;;
61702;SDS011;47622;47.726;3.298;2023-12-20T04:12:03;4.97;;;3.10;;
61702;SDS011;47622;47.726;3.298;2023-12-20T04:14:28;8.07;;;3.03;;
61702;SDS011;47622;47.726;3.298;2023-12-20T04:16:54;6.07;;;2.72;;
61702;SDS011;47622;47.726;3.298;2023-12-20T04:19:19;7.45;;;3.10;;
61702;SDS011;47622;47.726;3.298;2023-12-20T04:21:45;6.80;;;2.95;;
61702;SDS011;47622;47.726;3.298;2023-12-20T04:24:11;7.43;;;2.72;;
61702;SDS011;47622;47.726;3.298;2023-12-20T04:26:36;10.35;;;2.60;;
61702;SDS011;47622;47.726;3.298;2023-12-20T04:29:02;6.82;;;2.45;;
61702;SDS011;47622;47.726;3.298;2023-12-20T04:31:27;8.07;;;4.15;;
61702;SDS011;47622;47.726;3.298;2023-12-20T04:33:53;5.97;;;2.55;;
61702;SDS011;47622;47.726;3.298;2023-12-20T04:36:19;4.85;;;2.17;;
61702;SDS011;47622;47.726;3.298;2023-12-20T04:38:44;8.18;;;2.75;;
61702;SDS011;47622;47.726;3.298;2023-12-20T04:41:10;7.38;;;2.45;;
61702;SDS011;47622;47.726;3.298;2023-12-20T04:43:35;5.75;;;2.05;;
61702;SDS011;47622;47.726;3.298;2023-12-20T04:46:01;6.57;;;2.38;;
61702;SDS011;47622;47.726;3.298;2023-12-20T04:48:27;4.78;;;2.13;;
61702;SDS011;47622;47.726;3.298;2023-12-20T04:50:52;5.47;;;2.60;;
61702;SDS011;47622;47.726;3.298;2023-12-20T04:53:18;6.10;;;2.30;;
61702;SDS011;47622;47.726;3.298;2023-12-20T04:55:44;6.32;;;2.25;;
61702;SDS011;47622;47.726;3.298;2023-12-20T04:58:09;6.68;;;2.15;;
61702;SDS011;47622;47.726;3.298;2023-12-20T05:00:35;5.10;;;2.10;;
61702;SDS011;47622;47.726;3.298;2023-12-20T05:03:00;5.43;;;2.20;;
61702;SDS011;47622;47.726;3.298;2023-12-20T05:05:26;5.32;;;1.70;;
61702;SDS011;47622;47.726;3.298;2023-12-20T05:07:51;5.30;;;2.13;;
61702;SDS011;47622;47.726;3.298;2023-12-20T05:10:17;7.13;;;2.15;;
61702;SDS011;47622;47.726;3.298;2023-12-20T05:12:43;4.38;;;1.90;;
61702;SDS011;47622;47.726;3.298;2023-12-20T05:15:08;8.00;;;2.17;;
61702;SDS011;47622;47.726;3.298;2023-12-20T05:17:34;7.15;;;2.25;;
61702;SDS011;47622;47.726;3.298;2023-12-20T05:20:00;5.10;;;2.30;;
61702;SDS011;47622;47.726;3.298;2023-12-20T05:22:26;7.07;;;3.08;;
61702;SDS011;47622;47.726;3.298;2023-12-20T05:24:52;9.45;;;2.63;;
61702;SDS011;47622;47.726;3.298;2023-12-20T05:27:18;5.85;;;2.20;;
61702;SDS011;47622;47.726;3.298;2023-12-20T05:29:44;3.55;;;2.20;;
61702;SDS011;47622;47.726;3.298;2023-12-20T05:32:09;6.38;;;2.20;;
61702;SDS011;47622;47.726;3.298;2023-12-20T05:34:35;3.40;;;1.80;;
61702;SDS011;47622;47.726;3.298;2023-12-20T05:37:01;4.60;;;2.10;;
61702;SDS011;47622;47.726;3.298;2023-12-20T05:39:27;5.07;;;1.83;;
61702;SDS011;47622;47.726;3.298;2023-12-20T05:41:52;3.97;;;1.77;;
61702;SDS011;47622;47.726;3.298;2023-12-20T05:44:18;2.88;;;1.98;;
61702;SDS011;47622;47.726;3.298;2023-12-20T05:46:44;4.15;;;1.95;;
61702;SDS011;47622;47.726;3.298;2023-12-20T05:49:09;6.32;;;3.20;;
61702;SDS011;47622;47.726;3.298;2023-12-20T05:51:35;10.27;;;1.92;;
61702;SDS011;47622;47.726;3.298;2023-12-20T05:54:01;10.70;;;2.20;;
61702;SDS011;47622;47.726;3.298;2023-12-20T05:56:27;7.07;;;2.40;;
61702;SDS011;47622;47.726;3.298;2023-12-20T05:58:52;7.15;;;1.85;;
61702;SDS011;47622;47.726;3.298;2023-12-20T06:01:18;5.28;;;1.83;;
61702;SDS011;47622;47.726;3.298;2023-12-20T06:03:43;8.43;;;2.20;;
61702;SDS011;47622;47.726;3.298;2023-12-20T06:06:11;7.63;;;1.73;;
61702;SDS011;47622;47.726;3.298;2023-12-20T06:08:37;4.80;;;2.08;;
61702;SDS011;47622;47.726;3.298;2023-12-20T06:11:03;4.22;;;2.10;;
61702;SDS011;47622;47.726;3.298;2023-12-20T06:13:29;4.82;;;1.80;;
61702;SDS011;47622;47.726;3.298;2023-12-20T06:15:54;5.00;;;2.10;;
61702;SDS011;47622;47.726;3.298;2023-12-20T06:18:20;4.53;;;1.80;;
61702;SDS011;47622;47.726;3.298;2023-12-20T06:20:46;3.42;;;1.73;;
61702;SDS011;47622;47.726;3.298;2023-12-20T06:23:11;7.10;;;2.20;;
61702;SDS011;47622;47.726;3.298;2023-12-20T06:25:37;5.78;;;2.30;;
61702;SDS011;47622;47.726;3.298;2023-12-20T06:28:03;4.68;;;1.60;;
61702;SDS011;47622;47.726;3.298;2023-12-20T06:30:28;3.85;;;1.95;;
61702;SDS011;47622;47.726;3.298;2023-12-20T06:32:54;6.38;;;1.88;;
61702;SDS011;47622;47.726;3.298;2023-12-20T06:35:22;7.95;;;2.00;;
61702;SDS011;47622;47.726;3.298;2023-12-20T06:37:48;5.13;;;1.80;;
61702;SDS011;47622;47.726;3.298;2023-12-20T06:40:13;3.80;;;2.28;;
61702;SDS011;47622;47.726;3.298;2023-12-20T06:42:39;5.53;;;1.77;;
61702;SDS011;47622;47.726;3.298;2023-12-20T06:45:04;3.85;;;1.70;;
61702;SDS011;47622;47.726;3.298;2023-12-20T06:47:30;6.68;;;1.98;;
61702;SDS011;47622;47.726;3.298;2023-12-20T06:49:56;5.35;;;2.53;;
61702;SDS011;47622;47.726;3.298;2023-12-20T06:52:21;5.95;;;1.90;;
61702;SDS011;47622;47.726;3.298;2023-12-20T06:54:47;5.30;;;1.77;;
61702;SDS011;47622;47.726;3.298;2023-12-20T06:57:12;4.40;;;1.90;;
61702;SDS011;47622;47.726;3.298;2023-12-20T06:59:39;4.75;;;2.10;;
61702;SDS011;47622;47.726;3.298;2023-12-20T07:02:05;5.60;;;2.00;;
61702;SDS011;47622;47.726;3.298;2023-12-20T07:04:31;8.95;;;2.28;;
61702;SDS011;47622;47.726;3.298;2023-12-20T07:06:56;4.20;;;2.22;;
61702;SDS011;47622;47.726;3.298;2023-12-20T07:09:25;41.58;;;3.85;;
61702;SDS011;47622;47.726;3.298;2023-12-20T07:11:51;3.50;;;2.67;;
61702;SDS011;47622;47.726;3.298;2023-12-20T07:14:17;10.88;;;5.55;;
61702;SDS011;47622;47.726;3.298;2023-12-20T07:16:43;10.60;;;5.93;;
61702;SDS011;47622;47.726;3.298;2023-12-20T07:19:08;7.60;;;5.32;;
61702;SDS011;47622;47.726;3.298;2023-12-20T07:21:34;9.65;;;4.78;;
61702;SDS011;47622;47.726;3.298;2023-12-20T07:23:59;7.85;;;4.30;;
61702;SDS011;47622;47.726;3.298;2023-12-20T07:26:25;5.90;;;3.83;;
61702;SDS011;47622;47.726;3.298;2023-12-20T07:28:50;6.80;;;4.53;;
61702;SDS011;47622;47.726;3.298;2023-12-20T07:31:16;9.80;;;5.18;;
61702;SDS011;47622;47.726;3.298;2023-12-20T07:33:42;11.00;;;5.35;;
61702;SDS011;47622;47.726;3.298;2023-12-20T07:36:07;7.20;;;4.82;;
61702;SDS011;47622;47.726;3.298;2023-12-20T07:38:34;8.82;;;5.00;;
61702;SDS011;47622;47.726;3.298;2023-12-20T07:40:59;9.48;;;5.00;;
61702;SDS011;47622;47.726;3.298;2023-12-20T07:43:25;11.68;;;5.88;;
61702;SDS011;47622;47.726;3.298;2023-12-20T07:45:50;10.73;;;5.00;;
61702;SDS011;47622;47.726;3.298;2023-12-20T07:48:16;9.43;;;5.93;;
61702;SDS011;47622;47.726;3.298;2023-12-20T07:50:41;11.15;;;5.20;;
61702;SDS011;47622;47.726;3.298;2023-12-20T07:53:08;8.30;;;5.35;;
61702;SDS011;47622;47.726;3.298;2023-12-20T07:55:33;9.20;;;5.75;;
61702;SDS011;47622;47.726;3.298;2023-12-20T07:57:59;12.20;;;6.80;;
61702;SDS011;47622;47.726;3.298;2023-12-20T08:00:25;10.65;;;5.90;;
61702;SDS011;47622;47.726;3.298;2023-12-20T08:02:54;8.77;;;5.70;;
61702;SDS011;47622;47.726;3.298;2023-12-20T08:05:19;7.35;;;5.45;;
61702;SDS011;47622;47.726;3.298;2023-12-20T08:07:45;10.55;;;5.88;;
61702;SDS011;47622;47.726;3.298;2023-12-20T08:10:10;10.43;;;5.07;;
61702;SDS011;47622;47.726;3.298;2023-12-20T08:12:36;9.23;;;4.55;;
61702;SDS011;47622;47.726;3.298;2023-12-20T08:15:02;8.85;;;5.05;;
61702;SDS011;47622;47.726;3.298;2023-12-20T08:17:29;9.63;;;4.53;;
61702;SDS011;47622;47.726;3.298;2023-12-20T08:19:54;7.57;;;3.35;;
61702;SDS011;47622;47.726;3.298;2023-12-20T08:22:20;10.30;;;4.15;;
61702;SDS011;47622;47.726;3.298;2023-12-20T08:24:45;9.77;;;3.83;;
61702;SDS011;47622;47.726;3.298;2023-12-20T08:27:11;6.43;;;3.72;;
61702;SDS011;47622;47.726;3.298;2023-12-20T08:29:36;6.28;;;4.57;;
61702;SDS011;47622;47.726;3.298;2023-12-20T08:32:02;5.45;;;4.60;;
61702;SDS011;47622;47.726;3.298;2023-12-20T08:34:27;4.78;;;3.22;;
61702;SDS011;47622;47.726;3.298;2023-12-20T08:36:53;7.65;;;3.08;;
61702;SDS011;47622;47.726;3.298;2023-12-20T08:39:19;4.30;;;2.25;;
61702;SDS011;47622;47.726;3.298;2023-12-20T08:41:44;11.25;;;4.68;;
61702;SDS011;47622;47.726;3.298;2023-12-20T08:44:10;9.05;;;5.03;;
61702;SDS011;47622;47.726;3.298;2023-12-20T08:46:35;8.43;;;4.57;;
61702;SDS011;47622;47.726;3.298;2023-12-20T08:49:01;7.90;;;4.25;;
61702;SDS011;47622;47.726;3.298;2023-12-20T08:51:27;9.52;;;4.88;;
61702;SDS011;47622;47.726;3.298;2023-12-20T08:53:53;8.13;;;3.97;;
61702;SDS011;47622;47.726;3.298;2023-12-20T08:56:19;13.80;;;3.15;;
61702;SDS011;47622;47.726;3.298;2023-12-20T08:58:47;7.32;;;2.42;;
61702;SDS011;47622;47.726;3.298;2023-12-20T09:01:13;4.85;;;1.77;;
61702;SDS011;47622;47.726;3.298;2023-12-20T09:03:40;11.23;;;2.83;;
61702;SDS011;47622;47.726;3.298;2023-12-20T09:06:05;11.13;;;2.03;;
61702;SDS011;47622;47.726;3.298;2023-12-20T09:08:31;9.95;;;2.42;;
61702;SDS011;47622;47.726;3.298;2023-12-20T09:10:57;7.35;;;1.73;;
61702;SDS011;47622;47.726;3.298;2023-12-20T09:13:22;5.53;;;1.90;;
61702;SDS011;47622;47.726;3.298;2023-12-20T09:15:54;8.45;;;2.15;;
61702;SDS011;47622;47.726;3.298;2023-12-20T09:18:22;11.63;;;2.67;;
61702;SDS011;47622;47.726;3.298;2023-12-20T09:20:48;8.68;;;2.42;;
61702;SDS011;47622;47.726;3.298;2023-12-20T09:23:13;8.68;;;3.10;;
61702;SDS011;47622;47.726;3.298;2023-12-20T09:25:39;8.68;;;2.35;;
61702;SDS011;47622;47.726;3.298;2023-12-20T09:28:04;8.45;;;2.03;;
61702;SDS011;47622;47.726;3.298;2023-12-20T09:30:30;4.93;;;1.88;;
61702;SDS011;47622;47.726;3.298;2023-12-20T09:32:56;14.00;;;2.72;;
61702;SDS011;47622;47.726;3.298;2023-12-20T09:35:22;6.05;;;2.22;;
61702;SDS011;47622;47.726;3.298;2023-12-20T09:37:48;9.30;;;2.70;;
61702;SDS011;47622;47.726;3.298;2023-12-20T09:40:14;9.10;;;2.33;;
61702;SDS011;47622;47.726;3.298;2023-12-20T09:45:14;9.90;;;2.20;;
61702;SDS011;47622;47.726;3.298;2023-12-20T09:47:43;6.35;;;2.40;;
61702;SDS011;47622;47.726;3.298;2023-12-20T09:50:09;7.63;;;2.22;;
61702;SDS011;47622;47.726;3.298;2023-12-20T09:52:36;8.00;;;2.55;;
61702;SDS011;47622;47.726;3.298;2023-12-20T09:55:01;7.25;;;2.38;;
61702;SDS011;47622;47.726;3.298;2023-12-20T09:57:31;9.23;;;2.22;;
61702;SDS011;47622;47.726;3.298;2023-12-20T09:59:57;9.85;;;2.45;;
61702;SDS011;47622;47.726;3.298;2023-12-20T10:02:24;7.03;;;2.15;;
61702;SDS011;47622;47.726;3.298;2023-12-20T10:04:55;6.10;;;2.33;;
61702;SDS011;47622;47.726;3.298;2023-12-20T10:07:21;8.25;;;2.13;;
61702;SDS011;47622;47.726;3.298;2023-12-20T10:09:47;12.93;;;2.40;;
61702;SDS011;47622;47.726;3.298;2023-12-20T10:12:13;5.13;;;2.10;;
61702;SDS011;47622;47.726;3.298;2023-12-20T10:14:39;11.13;;;2.55;;
61702;SDS011;47622;47.726;3.298;2023-12-20T10:17:05;9.13;;;2.63;;
61702;SDS011;47622;47.726;3.298;2023-12-20T10:19:31;10.95;;;2.45;;
61702;SDS011;47622;47.726;3.298;2023-12-20T10:21:59;12.55;;;3.30;;
61702;SDS011;47622;47.726;3.298;2023-12-20T10:24:25;9.27;;;2.40;;
61702;SDS011;47622;47.726;3.298;2023-12-20T10:27:08;8.40;;;1.85;;
61702;SDS011;47622;47.726;3.298;2023-12-20T10:29:36;6.85;;;2.03;;
61702;SDS011;47622;47.726;3.298;2023-12-20T10:34:57;7.35;;;2.28;;
61702;SDS011;47622;47.726;3.298;2023-12-20T10:37:24;6.50;;;2.00;;
61702;SDS011;47622;47.726;3.298;2023-12-20T10:39:50;7.28;;;2.03;;
61702;SDS011;47622;47.726;3.298;2023-12-20T10:42:21;14.65;;;2.72;;
61702;SDS011;47622;47.726;3.298;2023-12-20T10:44:50;10.65;;;1.98;;
61702;SDS011;47622;47.726;3.298;2023-12-20T10:47:16;7.13;;;1.95;;
61702;SDS011;47622;47.726;3.298;2023-12-20T10:49:42;9.20;;;2.33;;
61702;SDS011;47622;47.726;3.298;2023-12-20T10:52:09;9.20;;;2.38;;
61702;SDS011;47622;47.726;3.298;2023-12-20T10:54:36;6.47;;;2.15;;
61702;SDS011;47622;47.726;3.298;2023-12-20T10:57:03;11.98;;;2.40;;
61702;SDS011;47622;47.726;3.298;2023-12-20T10:59:32;11.40;;;2.60;;
61702;SDS011;47622;47.726;3.298;2023-12-20T11:02:02;10.25;;;2.40;;
61702;SDS011;47622;47.726;3.298;2023-12-20T11:04:43;6.45;;;2.28;;
61702;SDS011;47622;47.726;3.298;2023-12-20T11:07:18;10.18;;;2.58;;
61702;SDS011;47622;47.726;3.298;2023-12-20T11:09:52;12.15;;;2.80;;
61702;SDS011;47622;47.726;3.298;2023-12-20T11:12:53;9.73;;;2.30;;
61702;SDS011;47622;47.726;3.298;2023-12-20T11:15:22;12.65;;;3.03;;
61702;SDS011;47622;47.726;3.298;2023-12-20T11:17:56;8.98;;;2.28;;
61702;SDS011;47622;47.726;3.298;2023-12-20T11:20:35;7.15;;;2.10;;
61702;SDS011;47622;47.726;3.298;2023-12-20T11:23:02;11.85;;;3.30;;
61702;SDS011;47622;47.726;3.298;2023-12-20T11:25:28;9.48;;;2.45;;
61702;SDS011;47622;47.726;3.298;2023-12-20T11:28:08;16.10;;;2.83;;
61702;SDS011;47622;47.726;3.298;2023-12-20T11:30:56;8.70;;;2.33;;
61702;SDS011;47622;47.726;3.298;2023-12-20T11:33:26;10.77;;;3.00;;
61702;SDS011;47622;47.726;3.298;2023-12-20T11:36:06;13.90;;;3.45;;
61702;SDS011;47622;47.726;3.298;2023-12-20T11:38:38;9.65;;;2.70;;
61702;SDS011;47622;47.726;3.298;2023-12-20T11:41:19;9.25;;;2.58;;
61702;SDS011;47622;47.726;3.298;2023-12-20T11:43:49;8.93;;;2.30;;
61702;SDS011;47622;47.726;3.298;2023-12-20T11:46:18;11.77;;;2.42;;
61702;SDS011;47622;47.726;3.298;2023-12-20T11:48:43;7.85;;;2.30;;
61702;SDS011;47622;47.726;3.298;2023-12-20T11:51:10;10.98;;;2.60;;
61702;SDS011;47622;47.726;3.298;2023-12-20T11:53:36;13.73;;;2.85;;
61702;SDS011;47622;47.726;3.298;2023-12-20T11:56:02;8.55;;;2.60;;
61702;SDS011;47622;47.726;3.298;2023-12-20T11:58:29;12.82;;;2.35;;
61702;SDS011;47622;47.726;3.298;2023-12-20T12:00:55;11.63;;;2.33;;
61702;SDS011;47622;47.726;3.298;2023-12-20T12:03:21;11.13;;;2.70;;
61702;SDS011;47622;47.726;3.298;2023-12-20T12:05:49;13.05;;;2.85;;
61702;SDS011;47622;47.726;3.298;2023-12-20T12:08:15;12.43;;;2.78;;
61702;SDS011;47622;47.726;3.298;2023-12-20T12:10:40;14.57;;;2.97;;
61702;SDS011;47622;47.726;3.298;2023-12-20T12:13:06;8.10;;;2.28;;
61702;SDS011;47622;47.726;3.298;2023-12-20T12:15:32;11.70;;;2.40;;
61702;SDS011;47622;47.726;3.298;2023-12-20T12:17:57;11.38;;;2.67;;
61702;SDS011;47622;47.726;3.298;2023-12-20T12:20:24;13.98;;;3.00;;
61702;SDS011;47622;47.726;3.298;2023-12-20T12:23:03;15.13;;;2.50;;
61702;SDS011;47622;47.726;3.298;2023-12-20T12:25:30;12.75;;;3.20;;
61702;SDS011;47622;47.726;3.298;2023-12-20T12:27:59;10.18;;;2.40;;
61702;SDS011;47622;47.726;3.298;2023-12-20T12:30:26;14.90;;;2.42;;
61702;SDS011;47622;47.726;3.298;2023-12-20T12:32:52;7.65;;;2.20;;
61702;SDS011;47622;47.726;3.298;2023-12-20T12:35:18;10.65;;;2.30;;
61702;SDS011;47622;47.726;3.298;2023-12-20T12:37:44;14.32;;;2.65;;
61702;SDS011;47622;47.726;3.298;2023-12-20T12:40:11;11.23;;;2.80;;
61702;SDS011;47622;47.726;3.298;2023-12-20T12:42:38;12.00;;;3.15;;
61702;SDS011;47622;47.726;3.298;2023-12-20T12:45:05;9.15;;;2.25;;
61702;SDS011;47622;47.726;3.298;2023-12-20T12:47:31;11.48;;;2.55;;
61702;SDS011;47622;47.726;3.298;2023-12-20T12:49:56;8.70;;;2.60;;
61702;SDS011;47622;47.726;3.298;2023-12-20T12:52:23;10.35;;;2.33;;
61702;SDS011;47622;47.726;3.298;2023-12-20T12:54:49;8.77;;;2.53;;
61702;SDS011;47622;47.726;3.298;2023-12-20T12:57:14;11.10;;;3.08;;
61702;SDS011;47622;47.726;3.298;2023-12-20T12:59:41;9.48;;;2.15;;
61702;SDS011;47622;47.726;3.298;2023-12-20T13:02:08;11.40;;;2.60;;
61702;SDS011;47622;47.726;3.298;2023-12-20T13:04:33;17.42;;;3.00;;
61702;SDS011;47622;47.726;3.298;2023-12-20T13:06:59;9.65;;;2.97;;
61702;SDS011;47622;47.726;3.298;2023-12-20T13:09:24;10.35;;;2.28;;
61702;SDS011;47622;47.726;3.298;2023-12-20T13:11:50;12.70;;;3.22;;
61702;SDS011;47622;47.726;3.298;2023-12-20T13:14:16;19.90;;;2.50;;
61702;SDS011;47622;47.726;3.298;2023-12-20T13:16:41;11.15;;;2.80;;
61702;SDS011;47622;47.726;3.298;2023-12-20T13:19:07;14.13;;;2.50;;
61702;SDS011;47622;47.726;3.298;2023-12-20T13:21:33;10.73;;;2.45;;
61702;SDS011;47622;47.726;3.298;2023-12-20T13:23:59;10.55;;;3.05;;
61702;SDS011;47622;47.726;3.298;2023-12-20T13:26:24;11.43;;;2.55;;
61702;SDS011;47622;47.726;3.298;2023-12-20T13:28:50;13.30;;;2.55;;
61702;SDS011;47622;47.726;3.298;2023-12-20T13:31:15;4.45;;;2.20;;
61702;SDS011;47622;47.726;3.298;2023-12-20T13:33:41;11.63;;;2.83;;
61702;SDS011;47622;47.726;3.298;2023-12-20T13:36:06;12.68;;;2.33;;
61702;SDS011;47622;47.726;3.298;2023-12-20T13:38:32;10.52;;;2.38;;
61702;SDS011;47622;47.726;3.298;2023-12-20T13:40:58;15.52;;;2.70;;
61702;SDS011;47622;47.726;3.298;2023-12-20T13:43:24;17.50;;;3.63;;
61702;SDS011;47622;47.726;3.298;2023-12-20T13:45:50;13.52;;;2.50;;
61702;SDS011;47622;47.726;3.298;2023-12-20T13:48:16;13.65;;;2.38;;
61702;SDS011;47622;47.726;3.298;2023-12-20T13:50:41;8.95;;;2.58;;
61702;SDS011;47622;47.726;3.298;2023-12-20T13:53:07;17.25;;;3.75;;
61702;SDS011;47622;47.726;3.298;2023-12-20T13:55:32;13.30;;;2.67;;
61702;SDS011;47622;47.726;3.298;2023-12-20T13:57:58;8.85;;;2.70;;
61702;SDS011;47622;47.726;3.298;2023-12-20T14:00:24;10.38;;;3.00;;
61702;SDS011;47622;47.726;3.298;2023-12-20T14:02:50;9.88;;;2.85;;
61702;SDS011;47622;47.726;3.298;2023-12-20T14:05:16;15.45;;;3.03;;
61702;SDS011;47622;47.726;3.298;2023-12-20T14:07:45;13.48;;;2.63;;
61702;SDS011;47622;47.726;3.298;2023-12-20T14:10:11;10.23;;;2.85;;
61702;SDS011;47622;47.726;3.298;2023-12-20T14:12:38;17.92;;;2.90;;
61702;SDS011;47622;47.726;3.298;2023-12-20T14:15:05;11.70;;;2.22;;
61702;SDS011;47622;47.726;3.298;2023-12-20T14:17:36;11.57;;;2.40;;
61702;SDS011;47622;47.726;3.298;2023-12-20T14:20:07;13.93;;;3.28;;
61702;SDS011;47622;47.726;3.298;2023-12-20T14:22:33;12.90;;;3.08;;
61702;SDS011;47622;47.726;3.298;2023-12-20T14:24:59;12.43;;;2.97;;
61702;SDS011;47622;47.726;3.298;2023-12-20T14:27:25;11.80;;;3.45;;
61702;SDS011;47622;47.726;3.298;2023-12-20T14:29:53;10.15;;;2.38;;
61702;SDS011;47622;47.726;3.298;2023-12-20T14:32:19;9.77;;;3.10;;
61702;SDS011;47622;47.726;3.298;2023-12-20T14:34:45;14.50;;;3.47;;
61702;SDS011;47622;47.726;3.298;2023-12-20T14:37:11;7.70;;;2.50;;
61702;SDS011;47622;47.726;3.298;2023-12-20T14:39:37;9.20;;;3.00;;
61702;SDS011;47622;47.726;3.298;2023-12-20T14:42:07;10.98;;;2.35;;
61702;SDS011;47622;47.726;3.298;2023-12-20T14:44:39;11.68;;;2.97;;